Time;durP1;ratioP1;P1;durP2;ratioP2;P2;SDS_P1;SDS_P2;PMS_P1;PMS_P2;Temp;Humidity;BMP_temperature;BMP_pressure;BME280_temperature;BME280_humidity;BME280_pressure;Samples;Min_cycle;Max_cycle;Signal;HPM_P1;HPM_P2
2023/10/03 00:00:03;;;;;;;40.35;27.02;;;17.40;85.20;;;;;;5077951;28;20047;-89
2023/10/03 00:02:32;;;;;;;41.30;26.25;;;17.40;85.30;;;;;;5057418;28;20090;-88
2023/10/03 00:05:01;;;;;;;41.03;27.15;;;17.40;85.50;;;;;;5090584;28;20052;-89
2023/10/03 00:07:32;;;;;;;36.72;24.42;;;17.30;86.00;;;;;;5063521;28;20051;-89
2023/10/03 00:10:08;;;;;;;39.58;25.77;;;17.30;86.20;;;;;;5046427;28;20097;-89
2023/10/03 00:12:34;;;;;;;39.17;25.43;;;17.20;86.60;;;;;;5071147;28;20073;-88
2023/10/03 00:15:00;;;;;;;41.15;26.05;;;17.20;87.00;;;;;;5074478;28;20083;-89
2023/10/03 00:17:26;;;;;;;38.08;26.38;;;17.20;87.80;;;;;;5047335;28;20048;-88
2023/10/03 00:19:55;;;;;;;39.97;28.20;;;17.20;88.60;;;;;;5063532;28;20040;-90
2023/10/03 00:22:36;;;;;;;;;;;;;;;;;;;;;
2023/10/03 00:25:02;;;;;;;40.58;26.20;;;17.20;88.80;;;;;;5065521;28;20040;-89
2023/10/03 00:27:32;;;;;;;39.97;25.30;;;17.10;89.30;;;;;;5062469;28;20103;-88
2023/10/03 00:30:10;;;;;;;37.88;26.02;;;17.10;89.60;;;;;;5046657;28;20093;-89
2023/10/03 00:32:40;;;;;;;41.20;26.58;;;16.50;89.30;;;;;;5061794;28;20417;-89
2023/10/03 00:35:19;;;;;;;;;;;;;;;;;;;;;
2023/10/03 00:37:51;;;;;;;39.67;25.25;;;17.10;89.90;;;;;;5079217;28;20055;-89
2023/10/03 00:40:40;;;;;;;38.85;24.83;;;17.10;89.40;;;;;;5062816;28;20108;-88
2023/10/03 00:43:14;;;;;;;41.53;26.42;;;17.10;88.60;;;;;;5079141;28;20101;-89
2023/10/03 00:45:44;;;;;;;43.55;27.33;;;17.10;88.80;;;;;;5058888;28;20058;-89
2023/10/03 00:48:34;;;;;;;37.55;25.10;;;16.60;88.00;;;;;;5060089;28;20396;-89
2023/10/03 00:51:05;;;;;;;41.85;27.70;;;17.00;87.80;;;;;;5072685;28;20054;-89
2023/10/03 00:53:37;;;;;;;37.40;23.98;;;17.00;87.60;;;;;;5058184;28;20442;-89
2023/10/03 00:56:15;;;;;;;35.53;24.20;;;17.00;87.50;;;;;;5075994;28;20059;-90
2023/10/03 00:58:50;;;;;;;38.42;26.85;;;17.00;87.50;;;;;;5068511;28;20046;-89
2023/10/03 01:01:33;;;;;;;39.65;25.65;;;17.00;87.30;;;;;;5071956;28;20044;-88
2023/10/03 01:04:16;;;;;;;38.30;25.67;;;16.10;86.70;;;;;;5057957;28;20091;-90
2023/10/03 01:06:45;;;;;;;40.70;25.48;;;16.90;86.90;;;;;;5040900;28;20075;-89
2023/10/03 01:09:20;;;;;;;34.75;23.00;;;17.00;86.60;;;;;;5075010;28;20035;-89
2023/10/03 01:11:49;;;;;;;38.25;24.10;;;16.90;86.00;;;;;;5081070;28;20040;-88
2023/10/03 01:14:17;;;;;;;39.08;24.10;;;16.90;85.40;;;;;;5079367;28;20046;-89
2023/10/03 01:16:56;;;;;;;37.88;23.02;;;16.90;84.00;;;;;;5097303;28;20051;-88
2023/10/03 01:19:31;;;;;;;36.35;22.17;;;17.00;83.10;;;;;;5079396;28;20145;-89
2023/10/03 01:22:04;;;;;;;37.47;22.70;;;17.00;82.40;;;;;;5080356;28;20125;-91
2023/10/03 01:24:30;;;;;;;35.30;21.48;;;16.00;81.00;;;;;;5074402;28;20063;-89
2023/10/03 01:27:01;;;;;;;35.72;22.75;;;17.00;80.50;;;;;;5079018;28;20051;-89
2023/10/03 01:29:27;;;;;;;34.92;21.63;;;17.00;79.50;;;;;;5070061;28;20044;-87
2023/10/03 01:31:58;;;;;;;36.85;22.40;;;16.90;78.50;;;;;;5067227;28;20051;-88
2023/10/03 01:34:27;;;;;;;29.25;20.33;;;16.90;77.30;;;;;;5057991;28;20119;-88
2023/10/03 01:36:55;;;;;;;32.92;20.95;;;16.90;76.30;;;;;;5081929;28;20047;-88
2023/10/03 01:39:30;;;;;;;40.60;22.92;;;16.90;75.20;;;;;;5048985;28;20464;-88
2023/10/03 01:41:58;;;;;;;31.20;20.67;;;17.00;72.60;;;;;;5065221;28;20039;-89
2023/10/03 01:44:38;;;;;;;35.38;19.90;;;17.00;72.00;;;;;;5079278;28;20526;-89
2023/10/03 01:47:13;;;;;;;31.75;20.95;;;16.40;69.20;;;;;;5035932;28;20065;-91
2023/10/03 01:49:51;;;;;;;31.70;20.38;;;16.80;69.40;;;;;;5068520;28;20059;-89
2023/10/03 01:52:22;;;;;;;31.90;19.33;;;16.90;68.20;;;;;;5060417;28;20511;-88
2023/10/03 01:54:49;;;;;;;34.38;21.25;;;16.90;67.70;;;;;;5074865;28;20126;-89
2023/10/03 01:57:22;;;;;;;34.05;21.45;;;16.90;67.60;;;;;;5061582;28;20397;-89
2023/10/03 02:00:18;;;;;;;33.67;20.83;;;16.80;67.50;;;;;;5061695;28;20083;-89
2023/10/03 02:02:51;;;;;;;32.60;20.75;;;16.80;67.80;;;;;;5078518;28;20048;-88
2023/10/03 02:05:24;;;;;;;35.50;21.10;;;16.80;67.70;;;;;;5046787;28;20134;-90
2023/10/03 02:07:55;;;;;;;35.83;22.80;;;16.70;67.70;;;;;;5068212;28;20040;-89
2023/10/03 02:10:24;;;;;;;37.42;22.05;;;17.00;67.10;;;;;;5045447;28;20420;-89
2023/10/03 02:12:53;;;;;;;34.13;20.75;;;16.80;66.40;;;;;;5048216;28;20050;-89
2023/10/03 02:15:29;;;;;;;35.13;21.17;;;16.80;65.20;;;;;;5047774;28;20101;-89
2023/10/03 02:18:09;;;;;;;35.03;21.48;;;16.80;64.40;;;;;;5054890;28;20119;-89
2023/10/03 02:20:55;;;;;;;35.33;21.98;;;16.80;64.20;;;;;;5045498;28;20076;-89
2023/10/03 02:23:47;;;;;;;30.52;19.63;;;16.80;63.20;;;;;;5036766;28;20036;-90
2023/10/03 02:26:16;;;;;;;30.27;20.13;;;16.70;61.50;;;;;;5036540;28;20048;-89
2023/10/03 02:28:54;;;;;;;;;;;;;;;;;;;;;
2023/10/03 02:31:23;;;;;;;32.28;19.42;;;16.70;61.60;;;;;;5071695;28;20488;-89
2023/10/03 02:33:51;;;;;;;31.52;20.35;;;16.70;60.70;;;;;;5051404;28;20044;-89
2023/10/03 02:36:18;;;;;;;34.97;20.70;;;16.80;59.50;;;;;;4997669;28;20071;-89
2023/10/03 02:38:47;;;;;;;35.97;20.20;;;16.80;58.60;;;;;;5067182;28;20048;-89
2023/10/03 02:41:19;;;;;;;30.77;18.92;;;16.80;56.90;;;;;;5044891;28;20442;-90
2023/10/03 02:44:00;;;;;;;;;;;;;;;;;;;;;
2023/10/03 02:46:45;;;;;;;33.92;19.38;;;16.80;55.00;;;;;;5062998;28;20044;-89
2023/10/03 02:49:13;;;;;;;31.80;19.90;;;16.80;52.90;;;;;;5031469;28;20089;-92
2023/10/03 02:51:42;;;;;;;31.85;20.55;;;16.80;53.70;;;;;;5032549;28;20052;-90
2023/10/03 02:54:10;;;;;;;30.55;19.63;;;16.90;52.10;;;;;;5044283;28;20052;-89
2023/10/03 02:56:48;;;;;;;34.28;19.65;;;16.90;51.40;;;;;;5056477;28;20081;-89
2023/10/03 02:59:17;;;;;;;33.08;20.50;;;16.90;50.00;;;;;;5046465;28;20053;-93
2023/10/03 03:01:52;;;;;;;33.90;18.92;;;17.30;49.20;;;;;;5053517;28;20127;-89
2023/10/03 03:04:25;;;;;;;30.80;19.45;;;17.00;48.20;;;;;;5072410;28;20501;-89
2023/10/03 03:06:51;;;;;;;34.42;20.00;;;16.20;47.00;;;;;;5051425;28;20488;-89
2023/10/03 03:09:23;;;;;;;;;;;17.00;46.60;;;;;;5058121;28;20113;-90
2023/10/03 03:11:55;;;;;;;33.70;19.13;;;17.00;44.50;;;;;;5076226;28;19951;-89
2023/10/03 03:14:26;;;;;;;32.97;19.23;;;17.00;46.20;;;;;;5058876;28;20475;-89
2023/10/03 03:16:52;;;;;;;36.47;19.30;;;17.10;44.70;;;;;;5060841;28;20048;-89
2023/10/03 03:19:23;;;;;;;29.77;18.48;;;17.00;43.60;;;;;;5076208;28;20097;-90
2023/10/03 03:21:55;;;;;;;35.17;19.35;;;17.10;42.00;;;;;;5075428;28;20044;-89
2023/10/03 03:24:33;;;;;;;30.30;18.27;;;17.10;40.70;;;;;;5056691;28;20059;-89
2023/10/03 03:27:11;;;;;;;31.40;20.77;;;17.20;40.00;;;;;;5076278;28;20044;-89
2023/10/03 03:29:57;;;;;;;29.63;17.85;;;17.20;39.60;;;;;;5065723;28;20044;-89
2023/10/03 03:32:34;;;;;;;32.70;19.70;;;17.20;38.80;;;;;;5053169;28;20043;-89
2023/10/03 03:35:05;;;;;;;33.72;19.05;;;17.20;38.30;;;;;;5048260;28;20097;-89
2023/10/03 03:37:40;;;;;;;32.50;19.63;;;17.20;37.70;;;;;;5076558;28;20150;-89
2023/10/03 03:40:25;;;;;;;36.58;19.15;;;16.60;36.70;;;;;;5064706;28;20052;-88
2023/10/03 03:43:00;;;;;;;28.42;18.13;;;17.30;36.70;;;;;;5081104;28;20040;-87
2023/10/03 03:45:29;;;;;;;30.52;17.98;;;17.80;36.20;;;;;;5079459;28;20052;-88
2023/10/03 03:47:57;;;;;;;37.97;19.95;;;17.30;36.10;;;;;;5064849;28;20048;-88
2023/10/03 03:50:23;;;;;;;31.63;18.35;;;17.30;34.30;;;;;;5063345;28;20044;-89
2023/10/03 03:52:59;;;;;;;31.23;18.20;;;17.30;34.10;;;;;;5064377;28;20468;-89
2023/10/03 03:55:31;;;;;;;31.95;18.63;;;17.30;31.50;;;;;;5063686;28;20075;-89
2023/10/03 03:57:59;;;;;;;32.90;17.77;;;17.90;32.00;;;;;;5062961;28;20523;-88
2023/10/03 04:00:38;;;;;;;34.85;18.73;;;17.00;31.50;;;;;;5062156;28;20142;-90
2023/10/03 04:03:23;;;;;;;32.65;18.05;;;17.30;31.50;;;;;;5099164;28;20040;-89
2023/10/03 04:05:57;;;;;;;27.98;17.50;;;17.30;31.90;;;;;;5080803;28;20048;-88
2023/10/03 04:08:26;;;;;;;32.58;18.77;;;17.30;32.20;;;;;;5069193;28;20477;-90
2023/10/03 04:10:54;;;;;;;28.95;18.73;;;17.30;32.10;;;;;;5081337;28;20127;-91
2023/10/03 04:13:21;;;;;;;28.30;18.10;;;17.10;32.40;;;;;;5060038;28;20052;-91
2023/10/03 04:15:50;;;;;;;27.30;17.42;;;17.30;32.80;;;;;;5070912;28;20401;-89
2023/10/03 04:18:18;;;;;;;28.48;16.63;;;17.30;33.00;;;;;;5052040;28;20405;-89
2023/10/03 04:20:46;;;;;;;28.85;18.23;;;17.30;33.20;;;;;;5056499;28;20139;-90
2023/10/03 04:23:13;;;;;;;28.83;17.08;;;17.30;32.70;;;;;;5074986;28;20063;-89
2023/10/03 04:25:40;;;;;;;30.42;17.15;;;17.40;32.30;;;;;;5065216;28;20040;-88
2023/10/03 04:28:13;;;;;;;33.25;18.80;;;17.40;32.80;;;;;;5050835;28;20124;-89
2023/10/03 04:30:41;;;;;;;28.92;17.42;;;17.40;32.90;;;;;;5038307;28;20049;-88
2023/10/03 04:33:21;;;;;;;26.83;15.90;;;16.50;32.40;;;;;;5023040;28;20048;-88
2023/10/03 04:35:52;;;;;;;29.35;16.20;;;17.80;32.40;;;;;;5047925;28;20044;-89
2023/10/03 04:38:20;;;;;;;26.15;15.77;;;17.50;31.40;;;;;;5075332;28;20044;-89
2023/10/03 04:40:54;;;;;;;28.52;15.20;;;17.50;31.00;;;;;;5066128;28;20201;-89
2023/10/03 04:43:23;;;;;;;26.77;15.63;;;17.60;29.80;;;;;;5051361;28;20097;-88
2023/10/03 04:46:02;;;;;;;;;;;;;;;;;;;;;
2023/10/03 04:48:44;;;;;;;;;;;;;;;;;;;;;
2023/10/03 04:51:18;;;;;;;26.38;15.48;;;17.60;29.60;;;;;;5077356;28;20051;-89
2023/10/03 04:53:59;;;;;;;29.25;17.13;;;17.70;30.00;;;;;;5064148;28;20441;-89
2023/10/03 04:56:27;;;;;;;31.60;16.73;;;17.70;30.60;;;;;;5048015;28;20120;-89
2023/10/03 04:58:55;;;;;;;25.60;16.35;;;17.70;31.80;;;;;;5064692;28;20040;-88
2023/10/03 05:01:21;;;;;;;24.02;15.18;;;17.70;32.70;;;;;;5045398;28;20047;-89
2023/10/03 05:03:54;;;;;;;26.13;15.43;;;17.80;32.80;;;;;;5068585;28;20458;-87
2023/10/03 05:06:42;;;;;;;28.63;16.42;;;17.80;32.30;;;;;;5078251;28;20044;-89
2023/10/03 05:09:11;;;;;;;25.45;14.93;;;17.40;32.40;;;;;;5030501;28;20044;-91
2023/10/03 05:11:54;;;;;;;29.05;16.23;;;18.70;33.60;;;;;;5059448;28;20048;-89
2023/10/03 05:14:23;;;;;;;24.10;14.75;;;18.00;33.80;;;;;;5067351;28;20039;-93
2023/10/03 05:16:52;;;;;;;26.42;14.25;;;17.90;34.70;;;;;;5060216;28;20493;-89
2023/10/03 05:19:20;;;;;;;30.13;14.77;;;18.00;35.20;;;;;;5045297;28;20043;-93
2023/10/03 05:22:07;;;;;;;25.02;15.27;;;18.00;34.80;;;;;;5071339;28;20157;-92
2023/10/03 05:24:54;;;;;;;25.38;15.23;;;18.10;34.50;;;;;;5070602;28;20058;-92
2023/10/03 05:27:22;;;;;;;30.38;15.23;;;18.00;34.80;;;;;;5065446;28;20051;-93
2023/10/03 05:30:06;;;;;;;25.00;15.05;;;18.00;35.70;;;;;;5076126;28;20131;-95
2023/10/03 05:32:42;;;;;;;27.85;15.35;;;18.10;36.40;;;;;;5070737;28;20036;-94
2023/10/03 05:35:27;;;;;;;28.55;15.50;;;18.10;37.40;;;;;;5080232;28;20047;-94
2023/10/03 05:37:53;;;;;;;24.98;14.27;;;18.10;39.00;;;;;;5077459;28;20040;-94
2023/10/03 05:40:32;;;;;;;27.45;14.70;;;18.90;41.00;;;;;;5079531;28;20127;-94
2023/10/03 05:42:58;;;;;;;25.67;14.90;;;17.30;41.70;;;;;;5053628;28;20083;-90
2023/10/03 05:45:23;;;;;;;25.05;14.00;;;18.10;43.80;;;;;;5068385;28;20055;-88
2023/10/03 05:47:49;;;;;;;25.20;13.68;;;18.10;46.50;;;;;;5060992;28;20546;-90
2023/10/03 05:50:17;;;;;;;28.17;14.57;;;18.10;47.50;;;;;;5079756;28;20148;-90
2023/10/03 05:52:44;;;;;;;19.45;12.73;;;18.20;49.10;;;;;;5082640;28;20044;-90
2023/10/03 05:55:09;;;;;;;;;;;18.20;50.10;;;;;;5084223;28;20047;-90
2023/10/03 05:57:38;;;;;;;25.33;15.23;;;17.60;56.60;;;;;;5082135;28;20361;-88
2023/10/03 06:00:08;;;;;;;23.33;14.55;;;18.20;51.10;;;;;;5079721;28;20067;-91
2023/10/03 06:02:39;;;;;;;28.75;14.85;;;18.20;52.30;;;;;;5062318;28;20153;-90
2023/10/03 06:05:06;;;;;;;27.17;13.98;;;18.30;52.70;;;;;;5061472;28;20052;-90
2023/10/03 06:07:32;;;;;;;26.70;14.90;;;17.40;53.50;;;;;;5063851;28;20047;-91
2023/10/03 06:09:58;;;;;;;19.95;12.70;;;18.30;54.80;;;;;;5084926;28;20621;-90
2023/10/03 06:12:24;;;;;;;28.08;14.15;;;18.30;54.60;;;;;;5091250;28;20043;-89
2023/10/03 06:14:53;;;;;;;25.33;12.60;;;18.30;54.30;;;;;;5057034;28;20070;-89
2023/10/03 06:17:19;;;;;;;24.73;12.20;;;18.30;54.50;;;;;;5066500;28;20097;-88
2023/10/03 06:19:45;;;;;;;22.23;12.90;;;18.30;53.00;;;;;;5074806;28;20036;-92
2023/10/03 06:22:12;;;;;;;21.23;11.45;;;18.30;52.50;;;;;;5067240;28;20063;-92
2023/10/03 06:24:39;;;;;;;20.80;11.02;;;18.30;51.80;;;;;;5079031;28;20059;-86
2023/10/03 06:27:08;;;;;;;22.73;9.98;;;18.20;50.90;;;;;;5109348;28;20047;-93
2023/10/03 06:29:42;;;;;;;20.92;10.25;;;18.30;49.60;;;;;;5081866;28;20044;-92
2023/10/03 06:32:11;;;;;;;14.10;9.32;;;18.30;48.90;;;;;;5073835;28;20078;-93
2023/10/03 06:34:38;;;;;;;18.63;10.07;;;18.10;49.40;;;;;;5065456;28;20081;-94
2023/10/03 06:37:08;;;;;;;17.95;9.07;;;18.20;48.10;;;;;;5063980;28;20048;-93
2023/10/03 06:39:34;;;;;;;15.57;8.52;;;18.20;46.80;;;;;;5065585;28;20396;-92
2023/10/03 06:42:00;;;;;;;21.63;9.05;;;18.20;46.10;;;;;;5064591;28;20040;-92
2023/10/03 06:44:26;;;;;;;21.13;7.78;;;18.20;45.10;;;;;;5091659;28;20044;-90
2023/10/03 06:46:52;;;;;;;15.57;7.80;;;18.20;44.40;;;;;;5090159;28;20044;-93
2023/10/03 06:49:20;;;;;;;19.35;6.93;;;18.10;43.60;;;;;;5071372;28;20054;-88
2023/10/03 06:51:46;;;;;;;15.35;6.90;;;18.10;42.00;;;;;;5067101;28;20039;-88
2023/10/03 06:54:15;;;;;;;18.77;7.22;;;18.10;40.10;;;;;;5079868;28;20081;-93
2023/10/03 06:56:43;;;;;;;15.88;6.45;;;18.20;39.60;;;;;;5070732;28;20040;-91
2023/10/03 06:59:10;;;;;;;14.10;6.35;;;18.10;38.00;;;;;;5085723;28;20047;-92
2023/10/03 07:01:37;;;;;;;10.82;5.35;;;18.10;36.50;;;;;;5068772;28;20070;-93
2023/10/03 07:04:10;;;;;;;13.07;5.30;;;18.10;34.30;;;;;;5071743;28;20063;-91
2023/10/03 07:06:36;;;;;;;10.88;5.50;;;18.10;31.70;;;;;;5099106;28;20051;-93
2023/10/03 07:09:06;;;;;;;12.77;5.07;;;18.00;31.90;;;;;;5084864;28;20054;-94
2023/10/03 07:11:32;;;;;;;11.23;5.72;;;18.10;31.10;;;;;;5099076;28;20055;-95
2023/10/03 07:13:59;;;;;;;;;;;18.00;31.30;;;;;;5083886;28;20105;-96
2023/10/03 07:16:25;;;;;;;8.65;3.83;;;18.00;29.20;;;;;;5083720;28;19959;-94
2023/10/03 07:18:51;;;;;;;14.02;5.35;;;18.10;30.30;;;;;;5073419;28;20066;-95
2023/10/03 07:21:21;;;;;;;11.95;4.15;;;18.10;27.30;;;;;;5096891;28;20047;-95
2023/10/03 07:23:47;;;;;;;14.75;4.78;;;18.10;26.60;;;;;;5087406;28;20135;-94
2023/10/03 07:26:16;;;;;;;13.93;6.20;;;18.10;26.70;;;;;;5101624;28;20078;-90
2023/10/03 07:28:57;;;;;;;;;;;;;;;;;;;;;
2023/10/03 07:31:25;;;;;;;14.68;4.63;;;18.00;27.50;;;;;;5075146;28;20059;-90
2023/10/03 07:33:52;;;;;;;8.98;4.22;;;17.70;28.20;;;;;;5056953;28;20052;-90
2023/10/03 07:36:18;;;;;;;14.40;5.10;;;18.00;29.30;;;;;;5067758;28;20039;-92
2023/10/03 07:38:47;;;;;;;7.22;4.78;;;17.90;30.60;;;;;;5088598;28;20051;-90
2023/10/03 07:41:13;;;;;;;14.07;5.18;;;17.90;32.80;;;;;;5094606;28;20127;-90
2023/10/03 07:43:47;;;;;;;10.10;5.57;;;17.90;35.10;;;;;;5094269;28;20071;-93
2023/10/03 07:46:22;;;;;;;12.63;5.28;;;17.80;38.30;;;;;;5093719;28;20040;-89
2023/10/03 07:48:52;;;;;;;16.17;5.90;;;17.80;40.20;;;;;;5060233;28;20441;-92
2023/10/03 07:51:29;;;;;;;10.30;4.72;;;17.80;42.80;;;;;;5086827;28;20048;-94
2023/10/03 07:54:02;;;;;;;14.30;5.88;;;17.80;46.50;;;;;;5088632;28;20043;-88
2023/10/03 07:56:30;;;;;;;10.10;5.57;;;17.70;50.20;;;;;;5108416;28;20047;-92
2023/10/03 07:59:05;;;;;;;10.60;5.60;;;17.70;54.30;;;;;;5070468;28;20055;-92
2023/10/03 08:01:31;;;;;;;15.35;6.07;;;17.60;60.40;;;;;;5081654;28;20040;-92
2023/10/03 08:04:00;;;;;;;;;;;17.50;61.30;;;;;;5083392;28;20056;-94
2023/10/03 08:06:43;;;;;;;14.13;6.30;;;16.60;75.20;;;;;;5083187;28;19920;-94
2023/10/03 08:09:11;;;;;;;12.10;6.00;;;17.40;65.70;;;;;;5081992;28;20048;-91
2023/10/03 08:11:37;;;;;;;10.93;5.45;;;17.40;68.60;;;;;;5075606;28;20054;-92
2023/10/03 08:14:16;;;;;;;11.95;6.35;;;17.30;72.20;;;;;;5090637;28;20044;-94
2023/10/03 08:16:43;;;;;;;7.47;5.20;;;17.30;74.60;;;;;;5099012;28;20115;-93
2023/10/03 08:19:27;;;;;;;7.85;5.55;;;17.20;75.30;;;;;;5071677;28;20080;-94
2023/10/03 08:21:54;;;;;;;11.68;5.90;;;17.20;80.30;;;;;;5093990;28;20047;-92
2023/10/03 08:24:28;;;;;;;10.30;4.97;;;17.30;76.60;;;;;;5091437;28;20077;-86
2023/10/03 08:27:01;;;;;;;10.13;4.88;;;16.20;76.10;;;;;;5099102;28;20047;-90
2023/10/03 08:29:27;;;;;;;6.85;3.88;;;16.50;73.70;;;;;;5092139;28;20059;-87
2023/10/03 08:31:57;;;;;;;9.55;4.10;;;17.00;72.20;;;;;;5088604;28;20051;-90
2023/10/03 08:34:43;;;;;;;11.00;3.92;;;17.10;71.00;;;;;;5079257;28;20058;-88
2023/10/03 08:37:18;;;;;;;10.32;4.07;;;17.20;68.90;;;;;;5063541;28;20500;-89
2023/10/03 08:39:48;;;;;;;7.60;3.17;;;17.10;68.00;;;;;;5066387;28;20079;-89
2023/10/03 08:42:19;;;;;;;9.43;3.95;;;17.10;67.80;;;;;;5077923;28;20066;-89
2023/10/03 08:44:54;;;;;;;8.73;3.38;;;17.10;66.90;;;;;;5078115;28;20052;-89
2023/10/03 08:47:33;;;;;;;16.65;4.13;;;15.90;67.20;;;;;;5073578;28;20387;-90
2023/10/03 08:50:11;;;;;;;9.48;3.47;;;16.90;70.00;;;;;;5095370;28;20044;-88
2023/10/03 08:52:49;;;;;;;6.82;3.60;;;16.90;68.80;;;;;;5070082;28;20100;-91
2023/10/03 08:55:20;;;;;;;9.32;2.60;;;16.80;67.70;;;;;;5094936;28;20042;-91
2023/10/03 08:57:51;;;;;;;9.85;3.47;;;16.70;68.80;;;;;;5087481;28;20039;-90
2023/10/03 09:00:25;;;;;;;5.78;2.35;;;15.80;69.00;;;;;;5074974;28;20088;-89
2023/10/03 09:03:15;;;;;;;;;;;;;;;;;;;;;
2023/10/03 09:05:49;;;;;;;5.38;1.67;;;16.00;64.70;;;;;;5079675;28;20043;-90
2023/10/03 09:08:35;;;;;;;6.60;2.35;;;16.70;60.40;;;;;;5087584;28;20039;-89
2023/10/03 09:11:21;;;;;;;5.68;1.58;;;16.60;59.10;;;;;;5062793;28;20551;-89
2023/10/03 09:13:48;;;;;;;7.40;2.47;;;16.60;56.70;;;;;;5058627;28;20039;-90
2023/10/03 09:16:19;;;;;;;7.75;1.85;;;16.60;58.10;;;;;;5068947;28;20127;-93
2023/10/03 09:18:58;;;;;;;5.90;1.55;;;16.60;56.90;;;;;;5072479;28;20047;-95
2023/10/03 09:21:24;;;;;;;4.57;1.38;;;15.50;53.90;;;;;;5072354;28;20080;-96
2023/10/03 09:24:09;;;;;;;10.43;2.05;;;16.60;55.10;;;;;;5090941;28;20047;-95
2023/10/03 09:26:46;;;;;;;4.20;1.20;;;16.70;53.80;;;;;;5090959;28;20043;-93
2023/10/03 09:29:18;;;;;;;3.45;1.38;;;16.70;56.20;;;;;;5104833;28;20544;-93
2023/10/03 09:31:50;;;;;;;3.97;1.10;;;16.50;62.60;;;;;;5069246;28;20086;-91
2023/10/03 09:34:19;;;;;;;1.73;0.82;;;16.20;65.70;;;;;;5087865;28;20499;-92
2023/10/03 09:36:48;;;;;;;3.40;1.20;;;16.20;68.20;;;;;;5071623;28;20071;-93
2023/10/03 09:39:21;;;;;;;5.30;1.40;;;16.10;71.40;;;;;;5097353;28;20047;-93
2023/10/03 09:41:57;;;;;;;5.85;1.60;;;16.10;74.10;;;;;;5075147;28;20044;-94
2023/10/03 09:44:32;;;;;;;7.15;1.17;;;16.10;73.10;;;;;;5070054;28;20051;-93
2023/10/03 09:47:06;;;;;;;3.75;1.20;;;16.00;74.40;;;;;;5073863;28;20133;-93
2023/10/03 09:49:38;;;;;;;3.42;0.98;;;16.00;75.00;;;;;;5086951;28;20099;-92
2023/10/03 09:52:22;;;;;;;1.55;0.80;;;15.90;72.00;;;;;;5088466;28;20111;-90
2023/10/03 09:54:54;;;;;;;3.50;1.13;;;15.80;67.80;;;;;;5063960;28;20493;-95
2023/10/03 09:57:29;;;;;;;4.85;0.98;;;15.80;68.00;;;;;;5062036;28;20123;-91
2023/10/03 09:59:55;;;;;;;2.67;1.10;;;15.60;68.20;;;;;;5063835;28;20051;-92
2023/10/03 10:02:36;;;;;;;3.20;0.68;;;15.60;69.40;;;;;;5062865;28;20054;-92
2023/10/03 10:05:19;;;;;;;3.80;1.08;;;15.60;70.80;;;;;;5063756;28;20060;-92
2023/10/03 10:08:40;;;;;;;3.13;1.00;;;15.70;69.00;;;;;;5063736;28;20055;-92
2023/10/03 10:11:22;;;;;;;3.53;0.95;;;15.60;66.60;;;;;;5037069;28;20143;-96
2023/10/03 10:14:10;;;;;;;4.05;1.23;;;15.50;67.50;;;;;;5067036;28;20047;-94
2023/10/03 10:17:04;;;;;;;6.10;1.00;;;15.30;65.60;;;;;;5044135;28;20047;-94
2023/10/03 10:20:18;;;;;;;2.45;1.10;;;15.50;65.50;;;;;;5049067;28;20094;-94
2023/10/03 10:23:02;;;;;;;5.25;1.20;;;15.50;62.30;;;;;;5042654;28;20091;-94
2023/10/03 10:25:51;;;;;;;3.22;1.40;;;15.40;65.30;;;;;;5044333;28;20083;-94
2023/10/03 10:28:38;;;;;;;4.30;1.52;;;14.60;64.90;;;;;;5060498;28;20135;-94
2023/10/03 10:31:31;;;;;;;7.32;1.20;;;14.90;65.20;;;;;;5046224;28;20053;-96
2023/10/03 10:34:46;;;;;;;2.15;1.50;;;16.50;66.50;;;;;;5060859;28;20051;-96
2023/10/03 10:37:27;;;;;;;;;;;;;;;;;;;;;
2023/10/03 10:40:09;;;;;;;4.68;1.50;;;15.40;66.30;;;;;;5085266;28;20066;-96
2023/10/03 10:43:12;;;;;;;5.32;1.80;;;15.40;66.10;;;;;;5070949;28;20054;-96
2023/10/03 10:45:49;;;;;;;3.33;1.27;;;15.50;66.40;;;;;;5070862;28;20081;-95
2023/10/03 10:48:39;;;;;;;6.80;1.30;;;15.50;65.70;;;;;;5069131;28;20079;-95
2023/10/03 10:51:10;;;;;;;4.40;1.70;;;15.60;63.00;;;;;;5085428;28;20051;-93
2023/10/03 10:54:10;;;;;;;;;;;;;;;;;;;;;
2023/10/03 10:57:04;;;;;;;3.35;1.30;;;15.80;60.70;;;;;;5101727;28;20052;-93
2023/10/03 10:59:31;;;;;;;4.35;1.30;;;15.70;50.30;;;;;;5042360;28;20436;-87
2023/10/03 11:02:10;;;;;;;5.40;1.48;;;15.70;53.40;;;;;;5059285;28;20677;-90
2023/10/03 11:04:38;;;;;;;5.03;1.42;;;15.70;48.70;;;;;;5041814;28;20109;-91
2023/10/03 11:07:04;;;;;;;7.18;2.35;;;15.70;47.00;;;;;;5065665;28;20497;-91
2023/10/03 11:09:35;;;;;;;6.13;1.75;;;15.70;43.80;;;;;;5061440;28;20033;-91
2023/10/03 11:12:04;;;;;;;4.32;1.50;;;15.70;44.30;;;;;;5088301;28;20048;-92
2023/10/03 11:14:31;;;;;;;5.82;1.58;;;15.60;48.20;;;;;;5075257;28;20047;-91
2023/10/03 11:17:01;;;;;;;2.45;1.33;;;15.60;49.40;;;;;;5052177;28;20127;-90
2023/10/03 11:19:30;;;;;;;3.63;1.35;;;15.50;49.90;;;;;;5055930;28;20130;-90
2023/10/03 11:21:56;;;;;;;6.70;1.70;;;15.40;52.30;;;;;;5078342;28;20043;-90
2023/10/03 11:24:23;;;;;;;7.53;1.95;;;15.20;56.50;;;;;;5059237;28;20503;-91
2023/10/03 11:26:57;;;;;;;3.88;1.30;;;15.20;59.80;;;;;;5060727;28;20044;-90
2023/10/03 11:29:49;;;;;;;2.90;1.27;;;15.10;62.70;;;;;;5060755;28;20080;-91
2023/10/03 11:32:24;;;;;;;2.78;1.20;;;15.10;65.80;;;;;;5069637;28;20051;-88
2023/10/03 11:34:57;;;;;;;2.80;1.15;;;15.10;66.80;;;;;;5084700;28;20124;-89
2023/10/03 11:37:30;;;;;;;5.00;1.50;;;15.00;65.90;;;;;;5059099;28;20050;-90
2023/10/03 11:40:16;;;;;;;3.03;1.30;;;14.90;66.60;;;;;;5060767;28;20046;-89
2023/10/03 11:42:59;;;;;;;4.30;1.17;;;14.90;66.50;;;;;;5062857;28;20037;-90
2023/10/03 11:45:36;;;;;;;2.65;1.52;;;14.90;67.40;;;;;;5076307;28;20048;-91
2023/10/03 11:48:07;;;;;;;4.18;1.52;;;14.90;68.10;;;;;;5058353;28;20040;-91
2023/10/03 11:50:42;;;;;;;4.13;1.70;;;14.90;66.30;;;;;;5063502;28;20063;-91
2023/10/03 11:53:08;;;;;;;6.22;1.60;;;14.90;66.60;;;;;;5064037;28;20044;-91
2023/10/03 11:55:40;;;;;;;8.57;1.90;;;13.90;64.90;;;;;;5066403;28;20128;-92
2023/10/03 11:58:09;;;;;;;6.70;2.30;;;14.80;61.40;;;;;;5050136;28;20044;-92
2023/10/03 12:00:35;;;;;;;4.97;1.98;;;14.60;56.90;;;;;;5081875;28;20488;-91
2023/10/03 12:03:05;;;;;;;4.43;1.88;;;14.10;55.40;;;;;;5071311;28;20043;-91
2023/10/03 12:05:35;;;;;;;3.30;1.67;;;14.80;55.20;;;;;;5035036;28;20059;-91
2023/10/03 12:08:05;;;;;;;3.67;2.17;;;14.80;52.50;;;;;;5054183;28;20044;-91
2023/10/03 12:10:31;;;;;;;5.07;1.88;;;14.80;52.40;;;;;;5048491;28;20476;-91
2023/10/03 12:13:00;;;;;;;5.40;2.47;;;14.70;51.90;;;;;;5057303;28;20056;-92
2023/10/03 12:15:29;;;;;;;5.60;2.08;;;14.70;51.60;;;;;;5074402;28;20040;-92
2023/10/03 12:18:01;;;;;;;5.70;2.60;;;14.60;51.70;;;;;;5042713;28;20077;-89
2023/10/03 12:20:31;;;;;;;3.45;1.80;;;14.80;51.70;;;;;;5054887;28;20040;-95
2023/10/03 12:22:58;;;;;;;6.80;2.30;;;15.20;52.20;;;;;;5057050;28;20115;-95
2023/10/03 12:25:26;;;;;;;;;;;14.40;52.40;;;;;;5058452;28;20044;-94
2023/10/03 12:27:53;;;;;;;6.63;2.45;;;14.30;49.80;;;;;;5055182;28;20019;-94
2023/10/03 12:30:22;;;;;;;5.85;2.45;;;14.20;56.00;;;;;;5057596;28;20047;-96
2023/10/03 12:32:50;;;;;;;4.88;2.90;;;14.10;55.20;;;;;;5055206;28;20040;-94
2023/10/03 12:35:16;;;;;;;4.82;2.20;;;14.10;51.90;;;;;;5029539;28;20040;-95
2023/10/03 12:37:44;;;;;;;;;;;14.10;51.40;;;;;;5041006;28;20055;-95
2023/10/03 12:40:15;;;;;;;5.03;2.22;;;14.10;44.80;;;;;;5052432;28;20049;-91
2023/10/03 12:42:47;;;;;;;4.97;2.20;;;14.00;50.40;;;;;;5062855;28;20044;-90
2023/10/03 12:54:42;;;;;;;6.18;2.40;;;14.10;45.80;;;;;;5314913;22;20067;-95
2023/10/03 12:57:13;;;;;;;5.95;2.33;;;14.10;45.60;;;;;;5040542;28;20489;-94
2023/10/03 12:59:44;;;;;;;4.20;2.88;;;14.10;47.00;;;;;;5039078;28;20068;-95
2023/10/03 13:02:17;;;;;;;6.70;2.35;;;14.10;47.90;;;;;;5040023;28;20040;-93
2023/10/03 13:04:47;;;;;;;8.35;2.83;;;14.30;49.80;;;;;;5026523;28;20147;-93
2023/10/03 13:07:20;;;;;;;7.40;2.67;;;14.30;51.70;;;;;;5056057;28;20075;-93
2023/10/03 13:09:49;;;;;;;4.68;2.28;;;14.50;52.10;;;;;;5029107;28;20413;-93
2023/10/03 13:12:17;;;;;;;7.72;2.35;;;14.80;53.10;;;;;;5028313;28;20062;-92
2023/10/03 13:14:43;;;;;;;6.40;2.65;;;14.90;51.10;;;;;;5028259;28;20050;-93
2023/10/03 13:17:13;;;;;;;8.60;2.38;;;15.10;48.50;;;;;;5061006;28;20127;-92
2023/10/03 13:19:41;;;;;;;7.60;3.15;;;15.30;47.10;;;;;;5045387;28;20048;-93
2023/10/03 13:22:24;;;;;;;7.53;3.55;;;14.90;46.40;;;;;;5075976;28;20548;-96
2023/10/03 13:24:52;;;;;;;6.97;2.90;;;16.20;43.60;;;;;;5025242;28;20448;-95
2023/10/03 13:27:23;;;;;;;6.43;3.50;;;16.40;39.10;;;;;;5027328;28;20083;-95